sensor_id;sensor_type;location;lat;lon;timestamp;P1;durP1;ratioP1;P2;durP2;ratioP2
73158;SDS011;61370;48.594;10.202;2022-08-02T00:02:01;2.78;;;1.10;;
73158;SDS011;61370;48.594;10.202;2022-08-02T00:04:30;2.70;;;0.90;;
73158;SDS011;61370;48.594;10.202;2022-08-02T00:06:57;2.00;;;0.88;;
73158;SDS011;61370;48.594;10.202;2022-08-02T00:09:23;3.83;;;1.25;;
73158;SDS011;61370;48.594;10.202;2022-08-02T00:11:49;3.03;;;1.05;;
73158;SDS011;61370;48.594;10.202;2022-08-02T00:14:16;3.42;;;1.00;;
73158;SDS011;61370;48.594;10.202;2022-08-02T00:16:43;2.33;;;1.15;;
73158;SDS011;61370;48.594;10.202;2022-08-02T00:19:09;2.45;;;1.05;;
73158;SDS011;61370;48.594;10.202;2022-08-02T00:21:36;2.08;;;1.05;;
73158;SDS011;61370;48.594;10.202;2022-08-02T00:24:02;3.75;;;1.30;;
73158;SDS011;61370;48.594;10.202;2022-08-02T00:26:29;2.35;;;1.17;;
73158;SDS011;61370;48.594;10.202;2022-08-02T00:28:56;3.22;;;1.50;;
73158;SDS011;61370;48.594;10.202;2022-08-02T00:31:22;3.80;;;1.20;;
73158;SDS011;61370;48.594;10.202;2022-08-02T00:33:49;2.95;;;1.40;;
73158;SDS011;61370;48.594;10.202;2022-08-02T00:36:16;3.60;;;1.30;;
73158;SDS011;61370;48.594;10.202;2022-08-02T00:38:42;4.18;;;1.55;;
73158;SDS011;61370;48.594;10.202;2022-08-02T00:41:13;3.28;;;1.60;;
73158;SDS011;61370;48.594;10.202;2022-08-02T00:43:43;3.10;;;1.20;;
73158;SDS011;61370;48.594;10.202;2022-08-02T00:46:10;3.72;;;1.25;;
73158;SDS011;61370;48.594;10.202;2022-08-02T00:48:37;2.60;;;1.27;;
73158;SDS011;61370;48.594;10.202;2022-08-02T00:51:04;3.70;;;1.40;;
73158;SDS011;61370;48.594;10.202;2022-08-02T00:53:30;3.47;;;1.80;;
73158;SDS011;61370;48.594;10.202;2022-08-02T00:55:57;3.97;;;1.40;;
73158;SDS011;61370;48.594;10.202;2022-08-02T00:58:25;4.07;;;1.80;;
73158;SDS011;61370;48.594;10.202;2022-08-02T01:00:52;3.67;;;1.80;;
73158;SDS011;61370;48.594;10.202;2022-08-02T01:03:23;3.33;;;1.73;;
73158;SDS011;61370;48.594;10.202;2022-08-02T01:05:49;4.57;;;1.90;;
73158;SDS011;61370;48.594;10.202;2022-08-02T01:08:16;3.78;;;2.03;;
73158;SDS011;61370;48.594;10.202;2022-08-02T01:10:42;5.78;;;2.15;;
73158;SDS011;61370;48.594;10.202;2022-08-02T01:13:09;3.90;;;2.20;;
73158;SDS011;61370;48.594;10.202;2022-08-02T01:15:37;4.30;;;2.45;;
73158;SDS011;61370;48.594;10.202;2022-08-02T01:18:15;6.43;;;2.58;;
73158;SDS011;61370;48.594;10.202;2022-08-02T01:24:00;4.43;;;2.50;;
73158;SDS011;61370;48.594;10.202;2022-08-02T01:26:41;3.85;;;2.35;;
73158;SDS011;61370;48.594;10.202;2022-08-02T01:31:49;5.28;;;2.05;;
73158;SDS011;61370;48.594;10.202;2022-08-02T01:34:35;4.57;;;2.28;;
73158;SDS011;61370;48.594;10.202;2022-08-02T01:37:19;4.00;;;1.83;;
73158;SDS011;61370;48.594;10.202;2022-08-02T01:39:50;7.30;;;1.95;;
73158;SDS011;61370;48.594;10.202;2022-08-02T01:42:18;4.03;;;1.98;;
73158;SDS011;61370;48.594;10.202;2022-08-02T01:44:45;5.90;;;1.70;;
73158;SDS011;61370;48.594;10.202;2022-08-02T01:47:20;7.25;;;2.03;;
73158;SDS011;61370;48.594;10.202;2022-08-02T01:49:49;5.70;;;2.03;;
73158;SDS011;61370;48.594;10.202;2022-08-02T01:52:18;3.83;;;2.10;;
73158;SDS011;61370;48.594;10.202;2022-08-02T01:54:51;4.45;;;2.40;;
73158;SDS011;61370;48.594;10.202;2022-08-02T01:57:49;6.07;;;3.13;;
73158;SDS011;61370;48.594;10.202;2022-08-02T02:00:18;5.93;;;3.45;;
73158;SDS011;61370;48.594;10.202;2022-08-02T02:02:48;7.70;;;3.80;;
73158;SDS011;61370;48.594;10.202;2022-08-02T02:05:15;8.57;;;4.63;;
73158;SDS011;61370;48.594;10.202;2022-08-02T02:07:44;8.93;;;4.38;;
73158;SDS011;61370;48.594;10.202;2022-08-02T02:10:13;9.85;;;5.63;;
73158;SDS011;61370;48.594;10.202;2022-08-02T02:12:41;11.40;;;5.82;;
73158;SDS011;61370;48.594;10.202;2022-08-02T02:15:10;13.20;;;7.30;;
73158;SDS011;61370;48.594;10.202;2022-08-02T02:17:38;11.07;;;6.53;;
73158;SDS011;61370;48.594;10.202;2022-08-02T02:20:08;13.10;;;6.70;;
73158;SDS011;61370;48.594;10.202;2022-08-02T02:22:37;15.82;;;8.15;;
73158;SDS011;61370;48.594;10.202;2022-08-02T02:25:03;19.83;;;10.20;;
73158;SDS011;61370;48.594;10.202;2022-08-02T02:27:30;22.38;;;10.68;;
73158;SDS011;61370;48.594;10.202;2022-08-02T02:29:57;27.05;;;11.50;;
73158;SDS011;61370;48.594;10.202;2022-08-02T02:32:25;26.60;;;11.40;;
73158;SDS011;61370;48.594;10.202;2022-08-02T02:34:53;23.65;;;11.32;;
73158;SDS011;61370;48.594;10.202;2022-08-02T02:37:21;24.48;;;11.65;;
73158;SDS011;61370;48.594;10.202;2022-08-02T02:39:49;26.83;;;11.88;;
73158;SDS011;61370;48.594;10.202;2022-08-02T02:42:16;28.08;;;12.27;;
73158;SDS011;61370;48.594;10.202;2022-08-02T02:44:45;24.30;;;12.45;;
73158;SDS011;61370;48.594;10.202;2022-08-02T02:47:13;32.67;;;14.48;;
73158;SDS011;61370;48.594;10.202;2022-08-02T02:49:42;29.08;;;14.02;;
73158;SDS011;61370;48.594;10.202;2022-08-02T02:52:09;33.97;;;14.27;;
73158;SDS011;61370;48.594;10.202;2022-08-02T02:54:36;29.63;;;13.93;;
73158;SDS011;61370;48.594;10.202;2022-08-02T02:57:03;31.05;;;14.38;;
73158;SDS011;61370;48.594;10.202;2022-08-02T02:59:34;28.10;;;13.35;;
73158;SDS011;61370;48.594;10.202;2022-08-02T03:02:01;28.95;;;13.52;;
73158;SDS011;61370;48.594;10.202;2022-08-02T03:04:28;30.80;;;13.73;;
73158;SDS011;61370;48.594;10.202;2022-08-02T03:06:55;29.33;;;14.45;;
73158;SDS011;61370;48.594;10.202;2022-08-02T03:09:22;31.77;;;14.27;;
73158;SDS011;61370;48.594;10.202;2022-08-02T03:11:48;30.92;;;14.65;;
73158;SDS011;61370;48.594;10.202;2022-08-02T03:14:15;29.80;;;13.73;;
73158;SDS011;61370;48.594;10.202;2022-08-02T03:16:49;28.17;;;14.18;;
73158;SDS011;61370;48.594;10.202;2022-08-02T03:19:17;31.63;;;13.68;;
73158;SDS011;61370;48.594;10.202;2022-08-02T03:21:45;27.10;;;13.70;;
73158;SDS011;61370;48.594;10.202;2022-08-02T03:24:13;25.60;;;12.43;;
73158;SDS011;61370;48.594;10.202;2022-08-02T03:26:39;26.88;;;13.20;;
73158;SDS011;61370;48.594;10.202;2022-08-02T03:29:06;23.50;;;12.45;;
73158;SDS011;61370;48.594;10.202;2022-08-02T03:31:34;28.63;;;13.23;;
73158;SDS011;61370;48.594;10.202;2022-08-02T03:34:01;27.27;;;13.02;;
73158;SDS011;61370;48.594;10.202;2022-08-02T03:36:29;28.13;;;12.68;;
73158;SDS011;61370;48.594;10.202;2022-08-02T03:38:57;21.83;;;11.27;;
73158;SDS011;61370;48.594;10.202;2022-08-02T03:41:25;19.58;;;9.23;;
73158;SDS011;61370;48.594;10.202;2022-08-02T03:43:52;22.63;;;10.10;;
73158;SDS011;61370;48.594;10.202;2022-08-02T03:46:19;20.38;;;10.63;;
73158;SDS011;61370;48.594;10.202;2022-08-02T03:48:48;32.35;;;12.65;;
73158;SDS011;61370;48.594;10.202;2022-08-02T03:51:16;113.90;;;14.70;;
73158;SDS011;61370;48.594;10.202;2022-08-02T03:53:44;51.47;;;14.02;;
73158;SDS011;61370;48.594;10.202;2022-08-02T03:56:10;92.35;;;13.35;;
73158;SDS011;61370;48.594;10.202;2022-08-02T03:58:37;59.85;;;13.05;;
73158;SDS011;61370;48.594;10.202;2022-08-02T04:01:03;45.58;;;11.82;;
73158;SDS011;61370;48.594;10.202;2022-08-02T04:03:29;66.53;;;12.77;;
73158;SDS011;61370;48.594;10.202;2022-08-02T04:05:56;53.40;;;11.98;;
73158;SDS011;61370;48.594;10.202;2022-08-02T04:08:23;196.27;;;16.13;;
73158;SDS011;61370;48.594;10.202;2022-08-02T04:10:49;161.05;;;13.85;;
73158;SDS011;61370;48.594;10.202;2022-08-02T04:13:35;49.22;;;11.38;;
73158;SDS011;61370;48.594;10.202;2022-08-02T04:16:08;58.58;;;12.32;;
73158;SDS011;61370;48.594;10.202;2022-08-02T04:18:39;69.00;;;11.85;;
73158;SDS011;61370;48.594;10.202;2022-08-02T04:21:20;192.35;;;14.38;;
73158;SDS011;61370;48.594;10.202;2022-08-02T04:23:47;77.18;;;14.02;;
73158;SDS011;61370;48.594;10.202;2022-08-02T04:26:14;99.25;;;13.43;;
73158;SDS011;61370;48.594;10.202;2022-08-02T04:28:41;103.57;;;13.82;;
73158;SDS011;61370;48.594;10.202;2022-08-02T04:31:08;65.38;;;12.50;;
73158;SDS011;61370;48.594;10.202;2022-08-02T04:33:35;58.08;;;13.32;;
73158;SDS011;61370;48.594;10.202;2022-08-02T04:36:02;49.92;;;11.75;;
73158;SDS011;61370;48.594;10.202;2022-08-02T04:38:30;61.72;;;11.65;;
73158;SDS011;61370;48.594;10.202;2022-08-02T04:40:57;67.22;;;12.25;;
73158;SDS011;61370;48.594;10.202;2022-08-02T04:43:24;43.88;;;11.50;;
73158;SDS011;61370;48.594;10.202;2022-08-02T04:45:51;41.53;;;12.23;;
73158;SDS011;61370;48.594;10.202;2022-08-02T04:48:20;69.28;;;14.75;;
73158;SDS011;61370;48.594;10.202;2022-08-02T04:50:47;64.85;;;13.60;;
73158;SDS011;61370;48.594;10.202;2022-08-02T04:53:14;101.65;;;12.85;;
73158;SDS011;61370;48.594;10.202;2022-08-02T04:55:41;57.03;;;12.43;;
73158;SDS011;61370;48.594;10.202;2022-08-02T04:58:07;33.22;;;11.23;;
73158;SDS011;61370;48.594;10.202;2022-08-02T05:00:34;24.15;;;11.30;;
73158;SDS011;61370;48.594;10.202;2022-08-02T05:03:00;45.80;;;12.43;;
73158;SDS011;61370;48.594;10.202;2022-08-02T05:05:27;178.15;;;16.20;;
73158;SDS011;61370;48.594;10.202;2022-08-02T05:07:54;23.88;;;11.57;;
73158;SDS011;61370;48.594;10.202;2022-08-02T05:10:21;22.58;;;10.90;;
73158;SDS011;61370;48.594;10.202;2022-08-02T05:12:48;30.30;;;11.57;;
73158;SDS011;61370;48.594;10.202;2022-08-02T05:15:15;20.17;;;9.70;;
73158;SDS011;61370;48.594;10.202;2022-08-02T05:17:45;24.63;;;10.10;;
73158;SDS011;61370;48.594;10.202;2022-08-02T05:20:15;16.48;;;9.52;;
73158;SDS011;61370;48.594;10.202;2022-08-02T05:22:47;29.42;;;11.05;;
73158;SDS011;61370;48.594;10.202;2022-08-02T05:25:14;31.65;;;10.80;;
73158;SDS011;61370;48.594;10.202;2022-08-02T05:27:41;18.70;;;9.73;;
73158;SDS011;61370;48.594;10.202;2022-08-02T05:30:09;25.15;;;10.63;;
73158;SDS011;61370;48.594;10.202;2022-08-02T05:32:42;19.13;;;9.82;;
73158;SDS011;61370;48.594;10.202;2022-08-02T05:35:10;62.95;;;10.18;;
73158;SDS011;61370;48.594;10.202;2022-08-02T05:37:37;16.48;;;9.38;;
73158;SDS011;61370;48.594;10.202;2022-08-02T05:40:04;15.15;;;9.80;;
73158;SDS011;61370;48.594;10.202;2022-08-02T05:42:31;18.45;;;9.70;;
73158;SDS011;61370;48.594;10.202;2022-08-02T05:44:57;12.75;;;8.48;;
73158;SDS011;61370;48.594;10.202;2022-08-02T05:47:24;12.10;;;8.60;;
73158;SDS011;61370;48.594;10.202;2022-08-02T05:49:51;14.75;;;8.18;;
73158;SDS011;61370;48.594;10.202;2022-08-02T05:52:18;12.63;;;8.98;;
73158;SDS011;61370;48.594;10.202;2022-08-02T05:55:04;10.52;;;7.30;;
73158;SDS011;61370;48.594;10.202;2022-08-02T06:00:09;10.35;;;7.40;;
73158;SDS011;61370;48.594;10.202;2022-08-02T06:05:15;8.60;;;6.40;;
73158;SDS011;61370;48.594;10.202;2022-08-02T06:07:45;11.95;;;8.48;;
73158;SDS011;61370;48.594;10.202;2022-08-02T06:10:15;8.73;;;5.47;;
73158;SDS011;61370;48.594;10.202;2022-08-02T06:15:12;6.25;;;4.50;;
73158;SDS011;61370;48.594;10.202;2022-08-02T06:20:07;10.20;;;4.95;;
73158;SDS011;61370;48.594;10.202;2022-08-02T06:22:36;16.27;;;5.10;;
73158;SDS011;61370;48.594;10.202;2022-08-02T06:25:06;9.90;;;5.35;;
73158;SDS011;61370;48.594;10.202;2022-08-02T06:27:33;8.88;;;5.40;;
73158;SDS011;61370;48.594;10.202;2022-08-02T06:30:00;7.50;;;4.85;;
73158;SDS011;61370;48.594;10.202;2022-08-02T06:32:27;6.00;;;4.68;;
73158;SDS011;61370;48.594;10.202;2022-08-02T06:34:54;6.50;;;4.95;;
73158;SDS011;61370;48.594;10.202;2022-08-02T06:37:25;8.40;;;4.78;;
73158;SDS011;61370;48.594;10.202;2022-08-02T06:39:58;7.30;;;5.13;;
73158;SDS011;61370;48.594;10.202;2022-08-02T06:42:50;9.40;;;4.97;;
73158;SDS011;61370;48.594;10.202;2022-08-02T06:47:46;6.95;;;5.18;;
73158;SDS011;61370;48.594;10.202;2022-08-02T06:50:12;7.30;;;4.55;;
73158;SDS011;61370;48.594;10.202;2022-08-02T06:52:39;6.95;;;4.55;;
73158;SDS011;61370;48.594;10.202;2022-08-02T06:55:06;7.95;;;4.82;;
73158;SDS011;61370;48.594;10.202;2022-08-02T06:57:33;5.80;;;4.90;;
73158;SDS011;61370;48.594;10.202;2022-08-02T06:59:59;7.03;;;4.30;;
73158;SDS011;61370;48.594;10.202;2022-08-02T07:02:28;6.85;;;5.07;;
73158;SDS011;61370;48.594;10.202;2022-08-02T07:04:55;5.70;;;4.25;;
73158;SDS011;61370;48.594;10.202;2022-08-02T07:07:21;5.93;;;3.83;;
73158;SDS011;61370;48.594;10.202;2022-08-02T07:09:48;6.72;;;4.20;;
73158;SDS011;61370;48.594;10.202;2022-08-02T07:12:16;6.78;;;4.13;;
73158;SDS011;61370;48.594;10.202;2022-08-02T07:14:42;5.82;;;3.95;;
73158;SDS011;61370;48.594;10.202;2022-08-02T07:17:09;6.10;;;3.95;;
73158;SDS011;61370;48.594;10.202;2022-08-02T07:19:36;6.68;;;4.35;;
73158;SDS011;61370;48.594;10.202;2022-08-02T07:22:02;5.53;;;3.78;;
73158;SDS011;61370;48.594;10.202;2022-08-02T07:24:28;5.93;;;4.03;;
73158;SDS011;61370;48.594;10.202;2022-08-02T07:26:56;7.50;;;3.78;;
73158;SDS011;61370;48.594;10.202;2022-08-02T07:29:22;4.55;;;3.58;;
73158;SDS011;61370;48.594;10.202;2022-08-02T07:31:49;5.40;;;3.85;;
73158;SDS011;61370;48.594;10.202;2022-08-02T07:34:16;6.13;;;3.88;;
73158;SDS011;61370;48.594;10.202;2022-08-02T07:36:42;6.30;;;4.03;;
73158;SDS011;61370;48.594;10.202;2022-08-02T07:39:09;6.07;;;3.80;;
73158;SDS011;61370;48.594;10.202;2022-08-02T07:41:35;7.82;;;4.00;;
73158;SDS011;61370;48.594;10.202;2022-08-02T07:44:01;8.07;;;3.72;;
73158;SDS011;61370;48.594;10.202;2022-08-02T07:46:28;6.07;;;3.88;;
73158;SDS011;61370;48.594;10.202;2022-08-02T07:48:55;5.72;;;3.30;;
73158;SDS011;61370;48.594;10.202;2022-08-02T07:51:21;5.60;;;3.72;;
73158;SDS011;61370;48.594;10.202;2022-08-02T07:53:48;5.45;;;3.53;;
73158;SDS011;61370;48.594;10.202;2022-08-02T07:56:14;7.55;;;3.60;;
73158;SDS011;61370;48.594;10.202;2022-08-02T07:58:41;7.28;;;3.85;;
73158;SDS011;61370;48.594;10.202;2022-08-02T08:01:08;9.48;;;4.10;;
73158;SDS011;61370;48.594;10.202;2022-08-02T08:03:34;5.50;;;3.55;;
73158;SDS011;61370;48.594;10.202;2022-08-02T08:06:01;6.03;;;3.40;;
73158;SDS011;61370;48.594;10.202;2022-08-02T08:08:28;5.50;;;3.65;;
73158;SDS011;61370;48.594;10.202;2022-08-02T08:10:54;6.22;;;3.50;;
73158;SDS011;61370;48.594;10.202;2022-08-02T08:13:20;7.20;;;3.35;;
73158;SDS011;61370;48.594;10.202;2022-08-02T08:15:47;4.78;;;3.22;;
73158;SDS011;61370;48.594;10.202;2022-08-02T08:18:13;8.38;;;3.65;;
73158;SDS011;61370;48.594;10.202;2022-08-02T08:20:40;4.90;;;3.33;;
73158;SDS011;61370;48.594;10.202;2022-08-02T08:23:07;4.95;;;3.20;;
73158;SDS011;61370;48.594;10.202;2022-08-02T08:25:33;5.28;;;3.45;;
73158;SDS011;61370;48.594;10.202;2022-08-02T08:27:59;5.07;;;3.90;;
73158;SDS011;61370;48.594;10.202;2022-08-02T08:30:26;5.57;;;3.53;;
73158;SDS011;61370;48.594;10.202;2022-08-02T08:32:52;4.50;;;2.78;;
73158;SDS011;61370;48.594;10.202;2022-08-02T08:35:19;5.97;;;3.90;;
73158;SDS011;61370;48.594;10.202;2022-08-02T08:37:45;6.47;;;3.47;;
73158;SDS011;61370;48.594;10.202;2022-08-02T08:40:12;7.80;;;3.38;;
73158;SDS011;61370;48.594;10.202;2022-08-02T08:42:39;4.45;;;2.90;;
73158;SDS011;61370;48.594;10.202;2022-08-02T08:45:06;4.53;;;2.88;;
73158;SDS011;61370;48.594;10.202;2022-08-02T08:47:38;5.30;;;2.97;;
73158;SDS011;61370;48.594;10.202;2022-08-02T08:50:09;5.15;;;3.10;;
73158;SDS011;61370;48.594;10.202;2022-08-02T08:52:41;5.00;;;3.10;;
73158;SDS011;61370;48.594;10.202;2022-08-02T08:55:08;4.63;;;2.22;;
73158;SDS011;61370;48.594;10.202;2022-08-02T08:57:40;4.93;;;2.88;;
73158;SDS011;61370;48.594;10.202;2022-08-02T09:00:11;4.05;;;2.30;;
73158;SDS011;61370;48.594;10.202;2022-08-02T09:02:41;5.43;;;2.28;;
73158;SDS011;61370;48.594;10.202;2022-08-02T09:05:08;4.95;;;1.90;;
73158;SDS011;61370;48.594;10.202;2022-08-02T09:07:36;4.82;;;2.03;;
73158;SDS011;61370;48.594;10.202;2022-08-02T09:10:30;2.75;;;1.65;;
73158;SDS011;61370;48.594;10.202;2022-08-02T09:15:32;3.92;;;1.70;;
73158;SDS011;61370;48.594;10.202;2022-08-02T09:17:59;2.47;;;1.40;;
73158;SDS011;61370;48.594;10.202;2022-08-02T09:20:25;4.75;;;1.50;;
73158;SDS011;61370;48.594;10.202;2022-08-02T09:23:07;3.22;;;1.38;;
73158;SDS011;61370;48.594;10.202;2022-08-02T09:25:35;2.88;;;1.42;;
73158;SDS011;61370;48.594;10.202;2022-08-02T09:28:05;3.03;;;1.60;;
73158;SDS011;61370;48.594;10.202;2022-08-02T09:30:32;3.53;;;1.70;;
73158;SDS011;61370;48.594;10.202;2022-08-02T09:33:08;3.17;;;1.90;;
73158;SDS011;61370;48.594;10.202;2022-08-02T09:35:37;3.50;;;1.63;;
73158;SDS011;61370;48.594;10.202;2022-08-02T09:40:36;3.42;;;1.67;;
73158;SDS011;61370;48.594;10.202;2022-08-02T09:43:07;3.67;;;1.70;;
73158;SDS011;61370;48.594;10.202;2022-08-02T09:45:34;4.25;;;1.90;;
73158;SDS011;61370;48.594;10.202;2022-08-02T09:48:02;3.88;;;1.90;;
73158;SDS011;61370;48.594;10.202;2022-08-02T09:50:32;3.42;;;2.00;;
73158;SDS011;61370;48.594;10.202;2022-08-02T09:52:59;5.05;;;2.00;;
73158;SDS011;61370;48.594;10.202;2022-08-02T09:55:28;3.15;;;1.80;;
73158;SDS011;61370;48.594;10.202;2022-08-02T09:57:54;5.53;;;2.00;;
73158;SDS011;61370;48.594;10.202;2022-08-02T10:00:21;4.10;;;1.73;;
73158;SDS011;61370;48.594;10.202;2022-08-02T10:05:52;2.92;;;1.48;;
73158;SDS011;61370;48.594;10.202;2022-08-02T10:08:20;3.95;;;2.17;;
73158;SDS011;61370;48.594;10.202;2022-08-02T10:10:47;3.33;;;1.83;;
73158;SDS011;61370;48.594;10.202;2022-08-02T10:13:14;3.78;;;2.08;;
73158;SDS011;61370;48.594;10.202;2022-08-02T10:15:40;4.47;;;1.80;;
73158;SDS011;61370;48.594;10.202;2022-08-02T10:18:07;3.10;;;1.90;;
73158;SDS011;61370;48.594;10.202;2022-08-02T10:20:42;3.88;;;1.73;;
73158;SDS011;61370;48.594;10.202;2022-08-02T10:23:12;4.47;;;2.00;;
73158;SDS011;61370;48.594;10.202;2022-08-02T10:25:39;3.15;;;1.50;;
73158;SDS011;61370;48.594;10.202;2022-08-02T10:28:06;6.15;;;1.70;;
73158;SDS011;61370;48.594;10.202;2022-08-02T10:30:37;3.47;;;1.70;;
73158;SDS011;61370;48.594;10.202;2022-08-02T10:33:04;5.45;;;2.03;;
73158;SDS011;61370;48.594;10.202;2022-08-02T10:35:32;3.90;;;1.73;;
73158;SDS011;61370;48.594;10.202;2022-08-02T10:38:04;3.15;;;1.90;;
73158;SDS011;61370;48.594;10.202;2022-08-02T10:40:46;4.07;;;1.90;;
73158;SDS011;61370;48.594;10.202;2022-08-02T10:49:15;4.28;;;2.05;;
73158;SDS011;61370;48.594;10.202;2022-08-02T10:54:32;3.28;;;1.60;;
73158;SDS011;61370;48.594;10.202;2022-08-02T10:57:26;3.58;;;1.70;;
73158;SDS011;61370;48.594;10.202;2022-08-02T11:00:03;3.15;;;1.55;;
73158;SDS011;61370;48.594;10.202;2022-08-02T11:02:38;6.28;;;1.90;;
73158;SDS011;61370;48.594;10.202;2022-08-02T11:07:46;3.42;;;1.70;;
73158;SDS011;61370;48.594;10.202;2022-08-02T11:10:27;4.65;;;1.60;;
73158;SDS011;61370;48.594;10.202;2022-08-02T11:15:49;3.25;;;1.45;;
73158;SDS011;61370;48.594;10.202;2022-08-02T11:18:16;4.70;;;1.95;;
73158;SDS011;61370;48.594;10.202;2022-08-02T11:20:43;3.47;;;1.70;;
73158;SDS011;61370;48.594;10.202;2022-08-02T11:26:48;3.28;;;1.52;;
73158;SDS011;61370;48.594;10.202;2022-08-02T11:28:59;2.78;;;1.50;;
73158;SDS011;61370;48.594;10.202;2022-08-02T11:31:27;2.90;;;1.50;;
73158;SDS011;61370;48.594;10.202;2022-08-02T11:33:54;3.85;;;1.85;;
73158;SDS011;61370;48.594;10.202;2022-08-02T11:36:20;2.63;;;1.60;;
73158;SDS011;61370;48.594;10.202;2022-08-02T11:38:47;3.45;;;1.60;;
73158;SDS011;61370;48.594;10.202;2022-08-02T11:41:17;3.40;;;1.35;;
73158;SDS011;61370;48.594;10.202;2022-08-02T11:43:54;3.03;;;1.63;;
73158;SDS011;61370;48.594;10.202;2022-08-02T11:46:21;3.47;;;1.60;;
73158;SDS011;61370;48.594;10.202;2022-08-02T11:48:47;3.72;;;1.60;;
73158;SDS011;61370;48.594;10.202;2022-08-02T11:51:17;3.47;;;1.70;;
73158;SDS011;61370;48.594;10.202;2022-08-02T11:53:53;4.10;;;1.73;;
73158;SDS011;61370;48.594;10.202;2022-08-02T11:56:27;3.92;;;1.73;;
73158;SDS011;61370;48.594;10.202;2022-08-02T11:59:05;4.07;;;1.80;;
73158;SDS011;61370;48.594;10.202;2022-08-02T12:01:36;3.78;;;1.80;;
73158;SDS011;61370;48.594;10.202;2022-08-02T12:04:04;3.78;;;1.58;;
73158;SDS011;61370;48.594;10.202;2022-08-02T12:06:33;3.15;;;1.58;;
73158;SDS011;61370;48.594;10.202;2022-08-02T12:11:31;4.45;;;2.13;;
73158;SDS011;61370;48.594;10.202;2022-08-02T12:13:58;3.97;;;1.42;;
73158;SDS011;61370;48.594;10.202;2022-08-02T12:16:36;3.33;;;1.67;;
73158;SDS011;61370;48.594;10.202;2022-08-02T12:19:22;3.90;;;1.90;;
73158;SDS011;61370;48.594;10.202;2022-08-02T12:24:47;3.22;;;2.00;;
73158;SDS011;61370;48.594;10.202;2022-08-02T12:27:34;3.28;;;1.40;;
73158;SDS011;61370;48.594;10.202;2022-08-02T12:30:04;3.83;;;1.90;;
73158;SDS011;61370;48.594;10.202;2022-08-02T12:32:36;2.75;;;1.50;;
73158;SDS011;61370;48.594;10.202;2022-08-02T12:35:07;3.00;;;1.52;;
73158;SDS011;61370;48.594;10.202;2022-08-02T12:37:38;3.38;;;1.30;;
73158;SDS011;61370;48.594;10.202;2022-08-02T12:40:20;3.10;;;1.50;;
73158;SDS011;61370;48.594;10.202;2022-08-02T12:42:57;3.55;;;1.50;;
73158;SDS011;61370;48.594;10.202;2022-08-02T12:45:26;2.75;;;1.38;;
73158;SDS011;61370;48.594;10.202;2022-08-02T12:47:54;3.30;;;1.58;;
73158;SDS011;61370;48.594;10.202;2022-08-02T12:58:05;4.68;;;1.52;;
73158;SDS011;61370;48.594;10.202;2022-08-02T13:00:33;3.83;;;1.58;;
73158;SDS011;61370;48.594;10.202;2022-08-02T13:03:01;3.35;;;1.67;;
73158;SDS011;61370;48.594;10.202;2022-08-02T13:05:28;2.90;;;1.60;;
73158;SDS011;61370;48.594;10.202;2022-08-02T13:07:55;4.45;;;1.40;;
73158;SDS011;61370;48.594;10.202;2022-08-02T13:10:23;3.50;;;1.75;;
73158;SDS011;61370;48.594;10.202;2022-08-02T13:12:50;5.85;;;1.50;;
73158;SDS011;61370;48.594;10.202;2022-08-02T13:15:18;3.10;;;1.60;;
73158;SDS011;61370;48.594;10.202;2022-08-02T13:17:45;3.78;;;1.45;;
73158;SDS011;61370;48.594;10.202;2022-08-02T13:20:12;3.28;;;1.73;;
73158;SDS011;61370;48.594;10.202;2022-08-02T13:22:41;2.92;;;1.30;;
73158;SDS011;61370;48.594;10.202;2022-08-02T13:25:08;2.60;;;1.50;;
73158;SDS011;61370;48.594;10.202;2022-08-02T13:27:35;3.15;;;1.60;;
73158;SDS011;61370;48.594;10.202;2022-08-02T13:30:03;2.95;;;1.30;;
73158;SDS011;61370;48.594;10.202;2022-08-02T13:32:30;4.00;;;1.60;;
73158;SDS011;61370;48.594;10.202;2022-08-02T13:34:57;3.40;;;1.42;;
73158;SDS011;61370;48.594;10.202;2022-08-02T13:37:24;3.35;;;1.60;;
73158;SDS011;61370;48.594;10.202;2022-08-02T13:39:50;2.70;;;1.40;;
73158;SDS011;61370;48.594;10.202;2022-08-02T13:42:17;3.10;;;1.50;;
73158;SDS011;61370;48.594;10.202;2022-08-02T13:44:43;2.45;;;1.40;;
73158;SDS011;61370;48.594;10.202;2022-08-02T13:47:10;3.13;;;1.40;;
73158;SDS011;61370;48.594;10.202;2022-08-02T13:49:39;3.72;;;1.55;;
73158;SDS011;61370;48.594;10.202;2022-08-02T13:52:10;4.13;;;1.60;;
73158;SDS011;61370;48.594;10.202;2022-08-02T13:54:41;2.95;;;1.40;;
73158;SDS011;61370;48.594;10.202;2022-08-02T13:57:08;3.30;;;1.40;;
73158;SDS011;61370;48.594;10.202;2022-08-02T13:59:36;2.55;;;1.50;;
73158;SDS011;61370;48.594;10.202;2022-08-02T14:02:03;3.00;;;1.40;;
73158;SDS011;61370;48.594;10.202;2022-08-02T14:04:30;2.55;;;1.30;;
73158;SDS011;61370;48.594;10.202;2022-08-02T14:06:57;3.67;;;1.40;;
73158;SDS011;61370;48.594;10.202;2022-08-02T14:09:24;2.97;;;1.40;;
73158;SDS011;61370;48.594;10.202;2022-08-02T14:11:51;2.50;;;1.40;;
73158;SDS011;61370;48.594;10.202;2022-08-02T14:14:17;3.33;;;1.60;;
73158;SDS011;61370;48.594;10.202;2022-08-02T14:16:44;2.80;;;1.23;;
73158;SDS011;61370;48.594;10.202;2022-08-02T14:19:11;3.28;;;1.50;;
73158;SDS011;61370;48.594;10.202;2022-08-02T14:21:38;5.28;;;1.67;;
73158;SDS011;61370;48.594;10.202;2022-08-02T14:24:05;2.70;;;1.50;;
73158;SDS011;61370;48.594;10.202;2022-08-02T14:26:32;2.65;;;1.48;;
73158;SDS011;61370;48.594;10.202;2022-08-02T14:28:58;4.22;;;1.60;;
73158;SDS011;61370;48.594;10.202;2022-08-02T14:31:25;2.75;;;1.48;;
73158;SDS011;61370;48.594;10.202;2022-08-02T14:33:51;2.83;;;1.60;;
73158;SDS011;61370;48.594;10.202;2022-08-02T14:36:18;3.25;;;1.70;;
73158;SDS011;61370;48.594;10.202;2022-08-02T14:38:44;2.47;;;1.40;;
73158;SDS011;61370;48.594;10.202;2022-08-02T14:41:11;3.28;;;1.50;;
73158;SDS011;61370;48.594;10.202;2022-08-02T14:43:37;4.53;;;1.70;;
73158;SDS011;61370;48.594;10.202;2022-08-02T14:46:22;2.67;;;1.45;;
73158;SDS011;61370;48.594;10.202;2022-08-02T14:48:49;3.10;;;1.38;;
73158;SDS011;61370;48.594;10.202;2022-08-02T14:51:15;4.45;;;1.80;;
73158;SDS011;61370;48.594;10.202;2022-08-02T14:53:42;3.45;;;1.60;;
73158;SDS011;61370;48.594;10.202;2022-08-02T14:56:08;2.95;;;1.55;;
73158;SDS011;61370;48.594;10.202;2022-08-02T14:58:35;3.88;;;1.50;;
73158;SDS011;61370;48.594;10.202;2022-08-02T15:01:01;2.78;;;1.48;;
73158;SDS011;61370;48.594;10.202;2022-08-02T15:03:31;3.95;;;1.63;;
73158;SDS011;61370;48.594;10.202;2022-08-02T15:05:57;3.60;;;1.40;;
73158;SDS011;61370;48.594;10.202;2022-08-02T15:08:24;3.28;;;1.88;;
73158;SDS011;61370;48.594;10.202;2022-08-02T15:10:50;3.00;;;1.50;;
73158;SDS011;61370;48.594;10.202;2022-08-02T15:13:17;4.70;;;1.88;;
73158;SDS011;61370;48.594;10.202;2022-08-02T15:15:43;3.63;;;1.40;;
73158;SDS011;61370;48.594;10.202;2022-08-02T15:18:10;3.45;;;1.63;;
73158;SDS011;61370;48.594;10.202;2022-08-02T15:20:37;3.03;;;1.40;;
73158;SDS011;61370;48.594;10.202;2022-08-02T15:23:04;2.75;;;1.42;;
73158;SDS011;61370;48.594;10.202;2022-08-02T15:25:30;3.13;;;1.40;;
73158;SDS011;61370;48.594;10.202;2022-08-02T15:27:56;3.92;;;1.48;;
73158;SDS011;61370;48.594;10.202;2022-08-02T15:30:23;2.95;;;1.42;;
73158;SDS011;61370;48.594;10.202;2022-08-02T15:32:58;2.55;;;1.50;;
73158;SDS011;61370;48.594;10.202;2022-08-02T15:35:25;2.78;;;1.60;;